createdAt,value
2023-04-30T00:00:43.898Z,17.80
2023-04-30T00:05:45.889Z,17.70
2023-04-30T00:10:47.851Z,17.60
2023-04-30T00:15:49.701Z,17.50
2023-04-30T00:20:53.484Z,17.40
2023-04-30T00:25:55.523Z,17.20
2023-04-30T00:30:57.448Z,17.10
2023-04-30T00:35:59.744Z,17.00
2023-04-30T00:41:01.922Z,17.00
2023-04-30T00:46:05.375Z,16.80
2023-04-30T00:51:07.513Z,16.70
2023-04-30T00:56:10.900Z,16.50
2023-04-30T01:01:12.834Z,16.60
2023-04-30T01:06:14.770Z,16.70
2023-04-30T01:11:40.531Z,16.70
2023-04-30T01:16:51.337Z,16.80
2023-04-30T01:21:53.947Z,16.80
2023-04-30T01:27:25.715Z,16.70
2023-04-30T01:32:27.996Z,16.70
2023-04-30T01:38:11.968Z,16.60
2023-04-30T01:43:33.724Z,16.50
2023-04-30T01:49:06.063Z,16.50
2023-04-30T01:54:33.721Z,16.20
2023-04-30T01:59:38.648Z,16.20
2023-04-30T02:04:40.666Z,16.00
2023-04-30T02:09:42.465Z,16.00
2023-04-30T02:14:44.317Z,16.00
2023-04-30T02:19:46.149Z,16.00
2023-04-30T02:24:48.194Z,15.90
2023-04-30T02:29:50.159Z,15.90
2023-04-30T02:34:52.024Z,15.80
2023-04-30T02:39:54.894Z,15.70
2023-04-30T02:44:57.008Z,15.70
2023-04-30T02:49:58.845Z,15.70
2023-04-30T02:55:00.805Z,15.70
2023-04-30T03:00:03.391Z,15.80
2023-04-30T03:05:05.643Z,15.80
2023-04-30T03:10:08.144Z,15.80
2023-04-30T03:15:10.728Z,15.90
2023-04-30T03:20:12.935Z,15.90
2023-04-30T03:25:14.907Z,15.90
2023-04-30T03:30:16.877Z,15.90
2023-04-30T03:35:19.160Z,15.90
2023-04-30T03:40:21.092Z,15.90
2023-04-30T03:45:23.049Z,15.80
2023-04-30T03:50:24.932Z,15.90
2023-04-30T03:55:26.947Z,15.80
2023-04-30T04:00:29.060Z,15.70
2023-04-30T04:05:31.015Z,15.70
2023-04-30T04:10:33.836Z,15.60
2023-04-30T04:15:35.764Z,15.60
2023-04-30T04:20:38.316Z,15.50
2023-04-30T04:25:41.635Z,15.50
2023-04-30T04:30:43.856Z,15.50
2023-04-30T04:35:45.997Z,15.40
2023-04-30T04:40:54.835Z,15.40
2023-04-30T04:45:57.890Z,15.40
2023-04-30T04:50:59.935Z,15.40
2023-04-30T04:56:02.133Z,15.40
2023-04-30T05:01:05.794Z,15.40
2023-04-30T05:06:07.851Z,15.40
2023-04-30T05:11:10.361Z,15.40
2023-04-30T05:16:12.349Z,15.40
2023-04-30T05:21:14.822Z,15.40
2023-04-30T05:26:17.004Z,15.40
2023-04-30T05:31:20.955Z,15.40
2023-04-30T05:36:23.745Z,15.50
2023-04-30T05:41:25.892Z,15.50
2023-04-30T05:46:28.101Z,15.50
2023-04-30T05:51:31.119Z,15.60
2023-04-30T05:56:33.296Z,15.60
2023-04-30T06:01:35.530Z,15.70
2023-04-30T06:06:37.669Z,15.70
2023-04-30T06:11:42.270Z,15.60
2023-04-30T06:16:45.505Z,15.60
2023-04-30T06:21:47.761Z,15.60
2023-04-30T06:26:49.885Z,15.60
2023-04-30T06:31:52.428Z,15.50
2023-04-30T06:36:54.518Z,15.50
2023-04-30T06:41:56.731Z,15.50
2023-04-30T06:46:58.826Z,15.60
2023-04-30T06:52:01.611Z,15.70
2023-04-30T06:57:03.698Z,15.80
2023-04-30T07:02:06.265Z,15.90
2023-04-30T07:07:11.016Z,16.10
2023-04-30T07:12:13.837Z,16.20
2023-04-30T07:17:16.081Z,16.20
2023-04-30T07:22:18.025Z,16.30
2023-04-30T07:27:20.092Z,16.40
2023-04-30T07:32:22.483Z,16.50
2023-04-30T07:37:24.573Z,16.50
2023-04-30T07:42:26.606Z,16.60
2023-04-30T07:47:28.751Z,16.80
2023-04-30T07:52:30.878Z,16.90
2023-04-30T07:57:32.787Z,17.10
2023-04-30T08:02:35.128Z,17.30
2023-04-30T08:07:37.173Z,17.50
2023-04-30T08:12:39.402Z,17.70
2023-04-30T08:17:41.610Z,17.80
2023-04-30T08:22:47.182Z,18.00
2023-04-30T08:27:49.253Z,18.10
2023-04-30T08:32:56.781Z,18.40
2023-04-30T08:38:00.988Z,18.60
2023-04-30T08:43:13.846Z,18.80
2023-04-30T08:48:19.227Z,19.00
2023-04-30T08:53:25.182Z,19.20
2023-04-30T08:58:27.432Z,19.30
2023-04-30T09:03:31.706Z,19.50
2023-04-30T09:08:47.156Z,19.60
2023-04-30T09:13:52.695Z,19.70
2023-04-30T09:18:54.884Z,19.90
2023-04-30T09:23:57.877Z,20.10
2023-04-30T09:29:01.206Z,20.30
2023-04-30T09:34:04.054Z,20.40
2023-04-30T09:39:15.438Z,20.50
2023-04-30T09:44:32.361Z,20.60
2023-04-30T09:49:37.950Z,20.70
2023-04-30T09:54:41.268Z,20.80
2023-04-30T09:59:48.930Z,21.00
2023-04-30T10:05:02.042Z,21.10
2023-04-30T10:10:05.301Z,21.30
2023-04-30T10:15:24.757Z,21.30
2023-04-30T10:20:28.111Z,21.40
2023-04-30T10:25:30.458Z,21.30
2023-04-30T10:30:32.676Z,21.20
2023-04-30T10:35:56.647Z,21.20
2023-04-30T10:41:03.275Z,21.20
2023-04-30T10:46:05.706Z,21.20
2023-04-30T10:51:09.138Z,21.10
2023-04-30T10:56:11.371Z,21.20
2023-04-30T11:01:17.464Z,21.20
2023-04-30T11:06:20.400Z,21.30
2023-04-30T11:11:25.545Z,21.30
2023-04-30T11:16:31.839Z,21.40
2023-04-30T11:21:34.272Z,21.40
2023-04-30T11:27:08.455Z,21.50
2023-04-30T11:32:11.013Z,21.70
2023-04-30T11:37:16.241Z,21.60
2023-04-30T11:42:19.364Z,21.60
2023-04-30T11:47:21.452Z,21.70
2023-04-30T11:52:26.090Z,21.70
2023-04-30T11:57:35.430Z,21.80
2023-04-30T12:02:37.707Z,21.80
2023-04-30T12:07:40.000Z,21.90
2023-04-30T12:12:44.074Z,22.00
2023-04-30T12:17:46.977Z,22.30
2023-04-30T12:22:49.390Z,22.50
2023-04-30T12:27:54.826Z,22.70
2023-04-30T12:33:00.911Z,22.80
2023-04-30T12:38:05.820Z,22.90
2023-04-30T12:43:09.045Z,22.90
2023-04-30T12:48:11.375Z,22.90
2023-04-30T12:53:13.220Z,22.90
2023-04-30T12:58:16.634Z,22.90
2023-04-30T13:03:23.507Z,22.90
2023-04-30T13:08:25.456Z,22.90
2023-04-30T13:13:27.368Z,23.00
2023-04-30T13:18:29.182Z,23.00
2023-04-30T13:23:35.851Z,22.90
2023-04-30T13:28:43.454Z,22.90
2023-04-30T13:33:45.261Z,22.70
2023-04-30T13:38:47.420Z,22.60
2023-04-30T13:43:49.642Z,22.70
2023-04-30T13:48:53.335Z,22.70
2023-04-30T13:53:55.585Z,22.70
2023-04-30T13:58:57.483Z,22.70
2023-04-30T14:03:59.454Z,22.70
2023-04-30T14:09:01.614Z,22.80
2023-04-30T14:14:03.657Z,22.60
2023-04-30T14:19:06.228Z,22.60
2023-04-30T14:24:09.153Z,22.50
2023-04-30T14:29:11.092Z,22.40
2023-04-30T14:34:13.596Z,22.40
2023-04-30T14:39:15.440Z,22.30
2023-04-30T14:44:17.945Z,22.20
2023-04-30T14:49:19.827Z,22.20
2023-04-30T14:54:22.069Z,22.20
2023-04-30T14:59:24.013Z,22.10
2023-04-30T15:04:25.878Z,22.00
2023-04-30T15:09:27.848Z,22.00
2023-04-30T15:14:29.765Z,21.90
2023-04-30T15:19:31.624Z,21.90
2023-04-30T15:24:34.378Z,21.80
2023-04-30T15:29:36.999Z,21.70
2023-04-30T15:34:38.880Z,21.70
2023-04-30T15:39:40.813Z,21.70
2023-04-30T15:44:42.664Z,21.60
2023-04-30T15:49:44.593Z,21.50
2023-04-30T15:54:46.391Z,21.50
2023-04-30T15:59:48.204Z,21.40
2023-04-30T16:04:50.006Z,21.30
2023-04-30T16:09:52.124Z,21.30
2023-04-30T16:14:54.413Z,21.30
2023-04-30T16:19:56.566Z,21.30
2023-04-30T16:24:58.616Z,21.20
2023-04-30T16:30:01.135Z,21.20
2023-04-30T16:35:03.237Z,21.10
2023-04-30T16:40:07.233Z,21.10
2023-04-30T16:45:09.578Z,21.10
2023-04-30T16:50:11.450Z,21.10
2023-04-30T16:55:13.372Z,21.10
2023-04-30T17:00:18.640Z,21.10
2023-04-30T17:05:21.331Z,21.10
2023-04-30T17:10:23.187Z,21.10
2023-04-30T17:15:26.216Z,21.00
2023-04-30T17:20:28.158Z,21.00
2023-04-30T17:25:31.955Z,21.00
2023-04-30T17:30:34.268Z,20.90
2023-04-30T17:35:36.240Z,20.90
2023-04-30T17:40:38.095Z,20.90
2023-04-30T17:45:39.959Z,20.80
2023-04-30T17:50:42.532Z,20.60
2023-04-30T17:55:44.906Z,20.60
2023-04-30T18:00:49.755Z,20.70
2023-04-30T18:05:51.903Z,20.60
2023-04-30T18:10:53.900Z,20.50
2023-04-30T18:15:56.287Z,20.50
2023-04-30T18:20:59.852Z,20.40
2023-04-30T18:26:02.517Z,20.40
2023-04-30T18:31:04.418Z,20.40
2023-04-30T18:36:07.618Z,20.30
2023-04-30T18:41:09.660Z,20.20
2023-04-30T18:46:11.670Z,20.20
2023-04-30T18:51:13.658Z,20.20
2023-04-30T18:56:15.904Z,20.20
2023-04-30T19:01:21.321Z,20.10
2023-04-30T19:06:23.402Z,20.00
2023-04-30T19:11:25.856Z,19.90
2023-04-30T19:16:27.977Z,19.80
2023-04-30T19:21:30.794Z,19.80
2023-04-30T19:26:32.938Z,19.80
2023-04-30T19:31:35.466Z,19.80
2023-04-30T19:36:37.700Z,19.80
2023-04-30T19:41:39.838Z,19.70
2023-04-30T19:46:42.557Z,19.70
2023-04-30T19:51:44.626Z,19.70
2023-04-30T19:56:46.677Z,19.60
2023-04-30T20:01:48.892Z,19.50
2023-04-30T20:06:56.938Z,19.40
2023-04-30T20:11:59.841Z,19.40
2023-04-30T20:17:02.537Z,19.40
2023-04-30T20:22:04.740Z,19.30
2023-04-30T20:27:07.440Z,19.40
2023-04-30T20:32:09.711Z,19.40
2023-04-30T20:37:12.114Z,19.30
2023-04-30T20:42:14.023Z,19.20
2023-04-30T20:47:15.952Z,19.10
2023-04-30T20:52:18.726Z,19.00
2023-04-30T20:57:20.823Z,19.00
2023-04-30T21:02:22.950Z,18.80
2023-04-30T21:07:25.149Z,18.90
2023-04-30T21:12:30.468Z,19.00
2023-04-30T21:17:32.661Z,18.90
2023-04-30T21:22:35.015Z,18.80
2023-04-30T21:27:37.101Z,18.70
2023-04-30T21:32:39.449Z,18.70
2023-04-30T21:37:42.226Z,18.70
2023-04-30T21:42:44.123Z,18.80
2023-04-30T21:47:48.009Z,18.70
2023-04-30T21:52:53.731Z,18.70
2023-04-30T21:57:56.086Z,18.60
2023-04-30T22:02:58.313Z,18.60
2023-04-30T22:08:00.410Z,18.60
2023-04-30T22:13:02.322Z,18.70
2023-04-30T22:18:04.532Z,18.70
2023-04-30T22:23:06.641Z,18.70
2023-04-30T22:28:10.214Z,18.70
2023-04-30T22:33:12.447Z,18.70
2023-04-30T22:38:14.442Z,18.70
2023-04-30T22:43:16.551Z,18.60
2023-04-30T22:48:18.753Z,18.60
2023-04-30T22:53:21.022Z,18.50
2023-04-30T22:58:22.952Z,18.60
2023-04-30T23:03:24.856Z,18.60
2023-04-30T23:08:26.810Z,18.70
2023-04-30T23:13:28.756Z,18.60
2023-04-30T23:18:31.597Z,18.50
2023-04-30T23:23:34.465Z,18.50
2023-04-30T23:28:38.039Z,18.30
2023-04-30T23:33:40.045Z,18.10
2023-04-30T23:38:42.899Z,18.00
2023-04-30T23:43:45.001Z,17.90
2023-04-30T23:48:49.771Z,18.00
2023-04-30T23:53:51.770Z,18.00
2023-04-30T23:58:53.843Z,18.00
